»·PEaware :: N1DB KRNO-KSMO

N1DB :: KRNO-KSMO

FLIGHT INFORMATION

Flight Status: Arrived
Operator: Privately registered:
United States
More flights under this callsign
Pilot: Dominic B. (18944)
Aircraft: BEECH AIRCRAFT PREMIER
(PRM1)
More flights by this aircraft type
Origin: KRNO Reno/Tahoe Intl
United States
Destination: KSMO Santa Monica Mun
United States
More flights between these airports :: More routes between these airports
Route: +RENO9 FMG J5 EHF FIM FERN7
File this flight plan on PilotEdge
Remarks:
Altitude:
(Current/Filed)
41,000ft
Speed:
(Current/Filed)
464kts
Departed: 16-Nov-20 07:29 PM
Arrived: 16-Nov-20 08:36 PM
Distance/Time
Traveled:
335nm/1:07
Distance/Time
To Go:
Arrived

Flight Plot

Page will automatically refresh every two minutes.

Flight plan parsing failed; only flown route is shown


Map Options




Map Legend


Flown Route
Filed Route
Departure Airport
Arrival Airport
Navaid (VOR, NDB)
Fix

Horizontal Profiles

Position Reports

Time Latitude Longitude Heading Altitude Ground
Speed
16-Nov-20 18:58 39.498634 -119.764707 180 4404ft 0kts
16-Nov-20 18:59 39.498634 -119.764707 180 4404ft 0kts
16-Nov-20 19:00 39.498634 -119.764707 180 4404ft 0kts
16-Nov-20 19:01 39.498634 -119.764707 180 4404ft 0kts
16-Nov-20 19:02 39.498634 -119.764707 180 4404ft 0kts
16-Nov-20 19:03 39.498634 -119.764707 180 4404ft 0kts
16-Nov-20 19:04 39.498634 -119.764707 180 4404ft 0kts
16-Nov-20 19:05 39.498634 -119.764707 180 4404ft 0kts
16-Nov-20 19:06 39.498634 -119.764707 180 4404ft 0kts
16-Nov-20 19:07 39.498634 -119.764707 180 4404ft 0kts
16-Nov-20 19:08 39.498634 -119.764707 180 4404ft 0kts
16-Nov-20 19:09 39.498634 -119.764707 180 4404ft 0kts
16-Nov-20 19:10 39.498628 -119.764707 180 4404ft 0kts
16-Nov-20 19:11 39.498576 -119.764707 179 4404ft 0kts
16-Nov-20 19:12 39.498404 -119.764905 262 4403ft 5kts
16-Nov-20 19:13 39.500987 -119.765605 328 4406ft 13kts
16-Nov-20 19:14 39.504980 -119.765715 0 4406ft 14kts
16-Nov-20 19:15 39.509220 -119.765741 351 4411ft 20kts
16-Nov-20 19:16 39.512906 -119.765135 0 4415ft 12kts
16-Nov-20 19:17 39.513706 -119.765472 289 4417ft 0kts
16-Nov-20 19:18 39.513706 -119.765472 289 4417ft 0kts
16-Nov-20 19:19 39.513706 -119.765472 289 4417ft 0kts
16-Nov-20 19:20 39.513706 -119.765472 289 4417ft 0kts
16-Nov-20 19:21 39.513706 -119.765472 289 4417ft 0kts
16-Nov-20 19:22 39.513731 -119.765683 273 4417ft 0kts
16-Nov-20 19:23 39.513731 -119.765683 273 4417ft 0kts
16-Nov-20 19:24 39.513731 -119.765683 273 4417ft 0kts
16-Nov-20 19:25 39.513731 -119.765683 273 4417ft 0kts
16-Nov-20 19:26 39.513731 -119.765683 273 4417ft 0kts
16-Nov-20 19:27 39.513740 -119.765947 272 4417ft 7kts
16-Nov-20 19:28 39.486601 -119.767089 181 5066ft 194kts
16-Nov-20 19:29 39.423337 -119.764911 176 8070ft 259kts
16-Nov-20 19:30 39.348194 -119.764080 177 11457ft 268kts
16-Nov-20 19:31 39.272459 -119.758023 177 13132ft 292kts
16-Nov-20 19:32 39.189232 -119.746697 166 14539ft 306kts
16-Nov-20 19:33 39.107370 -119.713300 164 15931ft 312kts
16-Nov-20 19:34 39.032446 -119.682962 166 19714ft 256kts
16-Nov-20 19:35 38.962009 -119.655309 166 21954ft 269kts
16-Nov-20 19:36 38.887572 -119.626107 166 23160ft 308kts
16-Nov-20 19:37 38.800101 -119.591740 165 23162ft 344kts
16-Nov-20 19:38 38.707726 -119.555421 165 23158ft 348kts
16-Nov-20 19:39 38.614431 -119.524279 173 23873ft 337kts
16-Nov-20 19:40 38.526771 -119.511320 175 26841ft 301kts
16-Nov-20 19:41 38.444556 -119.499798 175 29198ft 285kts
16-Nov-20 19:42 38.364192 -119.488525 175 30591ft 299kts
16-Nov-20 19:43 38.280044 -119.476672 176 31904ft 309kts
16-Nov-20 19:44 38.193376 -119.464474 176 33089ft 319kts
16-Nov-20 19:45 38.103705 -119.451886 176 34183ft 328kts
16-Nov-20 19:46 38.012325 -119.439082 176 35256ft 334kts
16-Nov-20 19:47 37.918942 -119.426069 176 36202ft 341kts
16-Nov-20 19:48 37.823635 -119.412832 177 37067ft 348kts
16-Nov-20 19:49 37.728253 -119.399378 178 38739ft 325kts
16-Nov-20 19:50 37.637871 -119.387019 179 39379ft 333kts
16-Nov-20 19:51 37.549213 -119.374373 180 41081ft 301kts
16-Nov-20 19:52 37.463296 -119.362918 179 41167ft 322kts
16-Nov-20 19:53 37.376150 -119.351004 179 41157ft 343kts
16-Nov-20 19:54 37.278802 -119.337593 179 41149ft 361kts
16-Nov-20 19:55 37.176563 -119.323576 179 41090ft 378kts
16-Nov-20 19:56 37.070099 -119.309014 179 41041ft 391kts
16-Nov-20 19:57 36.960637 -119.294229 178 41045ft 401kts
16-Nov-20 19:58 36.848529 -119.278827 179 41047ft 408kts
16-Nov-20 19:59 36.734714 -119.263496 178 41046ft 415kts
16-Nov-20 20:00 36.619350 -119.247818 178 41040ft 419kts
16-Nov-20 20:01 36.503271 -119.232237 178 41033ft 422kts
16-Nov-20 20:02 36.386655 -119.216629 179 41034ft 423kts
16-Nov-20 20:03 36.269459 -119.200940 179 41035ft 424kts
16-Nov-20 20:04 36.152039 -119.185291 178 41033ft 424kts
16-Nov-20 20:05 36.035319 -119.169752 178 40065ft 420kts
16-Nov-20 20:06 35.916534 -119.154142 178 37942ft 438kts
16-Nov-20 20:08 35.796219 -119.138185 177 35634ft 431kts
16-Nov-20 20:09 35.678741 -119.122671 177 33427ft 420kts
16-Nov-20 20:10 35.564667 -119.107715 176 31225ft 407kts
16-Nov-20 20:11 35.453402 -119.092362 173 28808ft 400kts
16-Nov-20 20:12 35.344613 -119.070444 172 26104ft 389kts
16-Nov-20 20:13 35.244845 -119.050791 172 23509ft 353kts
16-Nov-20 20:14 35.148897 -119.032289 171 21086ft 343kts
16-Nov-20 20:15 35.057677 -119.014757 171 18847ft 326kts
16-Nov-20 20:16 34.970142 -118.997957 171 16644ft 316kts
16-Nov-20 20:17 34.883413 -118.981351 171 14622ft 311kts
16-Nov-20 20:18 34.798897 -118.965210 171 12621ft 303kts
16-Nov-20 20:19 34.716776 -118.949539 170 10623ft 294kts
16-Nov-20 20:20 34.639918 -118.934934 170 10027ft 267kts
16-Nov-20 20:21 34.566932 -118.921061 170 10035ft 267kts
16-Nov-20 20:22 34.492175 -118.906890 170 10041ft 271kts
16-Nov-20 20:23 34.418942 -118.893022 170 10047ft 265kts
16-Nov-20 20:24 34.352663 -118.857504 130 9142ft 271kts
16-Nov-20 20:25 34.320947 -118.776783 113 7337ft 265kts
16-Nov-20 20:26 34.293546 -118.695862 113 6098ft 258kts
16-Nov-20 20:26 34.270712 -118.629084 112 6090ft 258kts
16-Nov-20 20:27 34.244005 -118.551215 113 6089ft 243kts
16-Nov-20 20:28 34.218453 -118.476319 110 6078ft 240kts
16-Nov-20 20:29 34.196057 -118.401219 110 5121ft 229kts
16-Nov-20 20:31 34.167197 -118.323417 151 3591ft 215kts
16-Nov-20 20:31 34.119285 -118.329554 206 2679ft 218kts
16-Nov-20 20:32 34.077601 -118.376918 229 1968ft 193kts
16-Nov-20 20:33 34.042567 -118.419598 225 905ft 165kts
16-Nov-20 20:34 34.014953 -118.452315 224 141ft 50kts
16-Nov-20 20:35 34.013666 -118.454876 332 141ft 3kts

Navigation Log

Ident Type
Flight plan parsing failed, navigation log unavailable